Time,TemperatureF,DewpointF,PressureIn,WindDirection,WindDirectionDegrees,WindSpeedMPH,WindSpeedGustMPH,Humidity,HourlyPrecipIn,Conditions,Clouds,dailyrainin,SoftwareType,DateUTC
2013-09-15 00:11:00,61.0,59.0,29.71,WNW,282,1.0,3.0,94,0.00,,,0.00,,2013-09-15 07:11:00,
2013-09-15 00:22:00,61.0,59.0,29.70,WNW,282,0.0,2.0,93,0.00,,,0.00,,2013-09-15 07:22:00,
2013-09-15 00:52:00,61.0,59.0,29.70,WNW,282,0.0,2.0,93,0.00,,,0.00,,2013-09-15 07:52:00,
2013-09-15 01:11:00,61.0,59.0,29.70,WNW,282,0.0,4.0,93,0.00,,,0.00,,2013-09-15 08:11:00,
2013-09-15 01:21:00,61.0,59.0,29.70,WNW,282,0.0,1.0,93,0.00,,,0.00,,2013-09-15 08:21:00,
2013-09-15 01:52:00,61.0,59.0,29.69,WNW,282,1.0,4.0,93,0.00,,,0.00,,2013-09-15 08:52:00,
2013-09-15 02:11:00,61.0,59.0,29.69,WNW,282,0.0,4.0,93,0.00,,,0.00,,2013-09-15 09:11:00,
2013-09-15 02:21:00,61.0,59.0,29.69,WNW,295,2.0,5.0,93,0.00,,,0.00,,2013-09-15 09:21:00,
2013-09-15 02:53:00,60.0,58.0,29.70,WNW,286,2.0,6.0,93,0.00,,,0.00,,2013-09-15 09:53:00,
2013-09-15 03:12:00,60.0,58.0,29.70,WNW,296,1.0,6.0,94,0.00,,,0.00,,2013-09-15 10:12:00,
2013-09-15 03:23:00,60.0,58.0,29.69,WNW,296,1.0,4.0,94,0.00,,,0.00,,2013-09-15 10:23:00,
2013-09-15 03:42:00,60.0,58.0,29.69,WNW,296,2.0,4.0,94,0.00,,,0.00,,2013-09-15 10:42:00,
2013-09-15 03:52:00,60.0,58.0,29.69,WNW,296,0.0,1.0,94,0.00,,,0.00,,2013-09-15 10:52:00,
2013-09-15 04:12:00,59.0,57.0,29.69,WNW,296,1.0,4.0,94,0.00,,,0.00,,2013-09-15 11:12:00,
2013-09-15 04:22:00,59.0,57.0,29.69,WNW,296,3.0,5.0,94,0.00,,,0.00,,2013-09-15 11:22:00,
2013-09-15 04:52:00,58.0,56.0,29.69,NW,307,3.0,7.0,94,0.00,,,0.00,,2013-09-15 11:52:00,
2013-09-15 05:12:00,57.0,55.0,29.69,WNW,300,2.0,9.0,94,0.00,,,0.00,,2013-09-15 12:12:00,
2013-09-15 05:21:00,57.0,56.0,29.69,WNW,290,2.0,7.0,95,0.00,,,0.00,,2013-09-15 12:21:00,
2013-09-15 05:52:00,56.0,55.0,29.68,NW,309,2.0,6.0,95,0.00,,,0.00,,2013-09-15 12:52:00,
2013-09-15 06:11:00,56.0,55.0,29.68,NW,308,1.0,4.0,95,0.00,,,0.00,,2013-09-15 13:11:00,
2013-09-15 06:21:00,56.0,55.0,29.68,NW,308,0.0,2.0,95,0.00,,,0.00,,2013-09-15 13:21:00,
2013-09-15 06:52:00,56.0,55.0,29.68,NW,308,0.0,3.0,95,0.00,,,0.00,,2013-09-15 13:52:00,
2013-09-15 07:22:00,56.0,55.0,29.69,NW,308,2.0,5.0,95,0.00,,,0.00,,2013-09-15 14:22:00,
2013-09-15 12:21:00,61.0,60.0,29.71,ESE,105,1.0,4.0,96,0.00,,,0.01,,2013-09-15 19:21:00,
2013-09-15 12:52:00,62.0,60.0,29.72,SE,132,0.0,4.0,94,0.00,,,0.01,,2013-09-15 19:52:00,
2013-09-15 13:11:00,63.0,61.0,29.72,SE,130,0.0,3.0,93,0.00,,,0.01,,2013-09-15 20:11:00,
2013-09-15 13:22:00,64.0,61.0,29.72,SSE,163,0.0,5.0,91,0.00,,,0.01,,2013-09-15 20:22:00,
2013-09-15 13:53:00,64.0,61.0,29.72,SW,227,0.0,4.0,89,0.00,,,0.01,,2013-09-15 20:53:00,
2013-09-15 14:11:00,64.0,61.0,29.72,SW,218,1.0,4.0,89,0.00,,,0.01,,2013-09-15 21:11:00,
2013-09-15 14:21:00,64.0,60.0,29.72,SSW,202,0.0,3.0,88,0.00,,,0.01,,2013-09-15 21:21:00,
2013-09-15 14:44:00,63.0,60.0,29.72,SSW,202,0.0,2.0,89,0.00,,,0.01,,2013-09-15 21:44:00,
2013-09-15 14:54:00,63.0,60.0,29.73,SSW,211,0.0,3.0,90,0.00,,,0.01,,2013-09-15 21:54:00,
2013-09-15 15:14:00,62.0,59.0,29.73,SSW,211,0.0,4.0,91,0.00,,,0.01,,2013-09-15 22:14:00,
2013-09-15 15:23:00,62.0,59.0,29.73,SSW,211,0.0,2.0,91,0.00,,,0.01,,2013-09-15 22:23:00,
2013-09-15 15:53:00,62.0,60.0,29.74,SSW,211,0.0,2.0,92,0.00,,,0.01,,2013-09-15 22:53:00,
2013-09-15 16:12:00,63.0,60.0,29.74,SSW,211,0.0,2.0,91,0.00,,,0.01,,2013-09-15 23:12:00,
2013-09-15 16:22:00,63.0,60.0,29.74,SSW,211,0.0,2.0,91,0.00,,,0.01,,2013-09-15 23:22:00,
2013-09-15 16:52:00,65.0,61.0,29.74,SSE,168,2.0,4.0,88,0.00,,,0.01,,2013-09-15 23:52:00,
2013-09-15 17:11:00,65.0,61.0,29.74,SE,138,2.0,6.0,87,0.00,,,0.01,,2013-09-16 00:11:00,
2013-09-15 17:21:00,65.0,61.0,29.74,SE,128,0.0,5.0,88,0.00,,,0.01,,2013-09-16 00:21:00,
2013-09-15 17:42:00,64.0,60.0,29.74,SE,129,0.0,3.0,88,0.00,,,0.01,,2013-09-16 00:42:00,
2013-09-15 17:52:00,64.0,61.0,29.75,SE,129,0.0,2.0,89,0.02,,,0.03,,2013-09-16 00:52:00,
2013-09-15 18:12:00,64.0,61.0,29.74,SE,129,0.0,2.0,91,0.03,,,0.04,,2013-09-16 01:12:00,
2013-09-15 18:21:00,64.0,61.0,29.74,SE,128,0.0,2.0,91,0.03,,,0.04,,2013-09-16 01:21:00,
2013-09-15 18:42:00,63.0,61.0,29.74,SE,130,1.0,3.0,92,0.03,,,0.04,,2013-09-16 01:42:00,
2013-09-15 18:52:00,63.0,61.0,29.75,SE,130,0.0,3.0,92,0.01,,,0.04,,2013-09-16 01:52:00,
2013-09-15 19:12:00,63.0,61.0,29.75,SE,133,0.0,4.0,93,0.00,,,0.04,,2013-09-16 02:12:00,
2013-09-15 19:22:00,63.0,61.0,29.75,SE,133,1.0,4.0,92,0.00,,,0.04,,2013-09-16 02:22:00,
2013-09-15 19:42:00,62.0,59.0,29.75,SSE,149,1.0,7.0,91,0.00,,,0.04,,2013-09-16 02:42:00,
2013-09-15 19:52:00,62.0,59.0,29.75,SSE,153,1.0,4.0,91,0.15,,,0.19,,2013-09-16 02:52:00,
2013-09-15 20:11:00,61.0,59.0,29.76,ESE,105,3.0,7.0,93,0.18,,,0.22,,2013-09-16 03:11:00,
2013-09-15 20:22:00,61.0,59.0,29.76,SE,140,1.0,4.0,93,0.19,,,0.23,,2013-09-16 03:22:00,
2013-09-15 20:54:00,61.0,59.0,29.76,ESE,103,0.0,1.0,94,0.03,,,0.23,,2013-09-16 03:54:00,
2013-09-15 21:13:00,61.0,59.0,29.78,ENE,75,0.0,3.0,94,0.01,,,0.23,,2013-09-16 04:13:00,
2013-09-15 21:24:00,61.0,59.0,29.78,ESE,123,1.0,4.0,94,0.00,,,0.23,,2013-09-16 04:24:00,
2013-09-15 21:54:00,61.0,59.0,29.78,SSE,150,1.0,4.0,94,0.01,,,0.24,,2013-09-16 04:54:00,
2013-09-15 22:12:00,61.0,59.0,29.78,SSE,150,1.0,5.0,94,0.01,,,0.24,,2013-09-16 05:12:00,
2013-09-15 22:22:00,61.0,59.0,29.77,SSE,156,0.0,3.0,94,0.01,,,0.24,,2013-09-16 05:22:00,
2013-09-15 22:52:00,61.0,59.0,29.77,SSE,157,0.0,2.0,94,0.00,,,0.24,,2013-09-16 05:52:00,
2013-09-15 23:12:00,61.0,59.0,29.77,SE,139,1.0,4.0,94,0.00,,,0.24,,2013-09-16 06:12:00,
2013-09-15 23:22:00,61.0,59.0,29.77,SE,136,1.0,6.0,94,0.00,,,0.24,,2013-09-16 06:22:00,
2013-09-15 23:52:00,61.0,59.0,29.78,ESE,115,2.0,8.0,93,0.00,,,0.24,,2013-09-16 06:52:00,